EZY74MV LFMN-EGGD
Flight info
| Callsign | EZY74MV |
|---|---|
| Flight time | 1h 44m |
| Altitude | 34000 |
| Route | BADOD DCT NEDRU DCT LTP DCT BULOL DCT IDAVO DCT BAGBI DCT SIZZA/N0452F360 DCT LAULY DCT BRY DCT CLM DCT KOPOR DCT KESAX DCT KUNAV T421 ICTAM |
| Aircraft | A320/M-SDE3FGHIRWY/LB1 |
Departure
| Time | 2026-05-06 17:20 |
|---|---|
| Airport | Nice-Côte d'Azur Airport (LFMN) |
Arrival
| Time | 2026-05-06 19:05 |
|---|---|
| Airport | Bristol Airport (EGGD) |
| Time | Latitude | Longitude | Altitude | Speed | Heading |
|---|---|---|---|---|---|
| 2026-05-06 16:44 | 43.65995 | 7.20721 | 104 ft | 0 kts | 259° |
| 2026-05-06 17:03 | 43.65995 | 7.20722 | 21 ft | 0 kts | 259° |
| 2026-05-06 17:05 | 43.65997 | 7.20736 | 21 ft | 4 kts | 259° |
| 2026-05-06 17:05 | 43.66002 | 7.20772 | 23 ft | 4 kts | 253° |
| 2026-05-06 17:05 | 43.66013 | 7.20803 | 22 ft | 4 kts | 214° |
| 2026-05-06 17:06 | 43.66033 | 7.20811 | 23 ft | 1 kts | 171° |
| 2026-05-06 17:13 | 43.66018 | 7.20814 | 21 ft | 6 kts | 172° |
| 2026-05-06 17:13 | 43.65966 | 7.20856 | 21 ft | 10 kts | 118° |
| 2026-05-06 17:13 | 43.65988 | 7.20936 | 21 ft | 10 kts | 45° |
| 2026-05-06 17:14 | 43.66053 | 7.21026 | 21 ft | 15 kts | 45° |
| 2026-05-06 17:14 | 43.66121 | 7.21120 | 21 ft | 13 kts | 45° |
| 2026-05-06 17:14 | 43.66182 | 7.21203 | 21 ft | 11 kts | 45° |
| 2026-05-06 17:14 | 43.66234 | 7.21274 | 21 ft | 10 kts | 45° |
| 2026-05-06 17:15 | 43.66280 | 7.21337 | 21 ft | 10 kts | 45° |
| 2026-05-06 17:15 | 43.66342 | 7.21424 | 21 ft | 8 kts | 46° |
| 2026-05-06 17:15 | 43.66376 | 7.21508 | 21 ft | 14 kts | 83° |
| 2026-05-06 17:15 | 43.66319 | 7.21622 | 21 ft | 13 kts | 106° |
| 2026-05-06 17:16 | 43.66366 | 7.21713 | 21 ft | 11 kts | 44° |
| 2026-05-06 17:16 | 43.66436 | 7.21808 | 21 ft | 19 kts | 44° |
| 2026-05-06 17:16 | 43.66527 | 7.21932 | 21 ft | 18 kts | 44° |
| 2026-05-06 17:16 | 43.66562 | 7.21988 | 21 ft | 4 kts | 67° |
| 2026-05-06 17:17 | 43.66525 | 7.22065 | 21 ft | 22 kts | 134° |
| 2026-05-06 17:17 | 43.66382 | 7.22265 | 21 ft | 20 kts | 126° |
| 2026-05-06 17:17 | 43.66417 | 7.22422 | 21 ft | 18 kts | 44° |
| 2026-05-06 17:17 | 43.66502 | 7.22540 | 21 ft | 17 kts | 45° |
| 2026-05-06 17:18 | 43.66553 | 7.22610 | 21 ft | 3 kts | 45° |
| 2026-05-06 17:18 | 43.66557 | 7.22615 | 21 ft | 1 kts | 45° |
| 2026-05-06 17:18 | 43.66571 | 7.22635 | 21 ft | 4 kts | 45° |
| 2026-05-06 17:18 | 43.66586 | 7.22684 | 21 ft | 10 kts | 91° |
| 2026-05-06 17:19 | 43.66524 | 7.22763 | 22 ft | 15 kts | 176° |
| 2026-05-06 17:19 | 43.66467 | 7.22714 | 22 ft | 6 kts | 225° |
| 2026-05-06 17:19 | 43.66466 | 7.22713 | 22 ft | 1 kts | 225° |
| 2026-05-06 17:19 | 43.66455 | 7.22698 | 22 ft | 6 kts | 225° |
| 2026-05-06 17:20 | 43.66303 | 7.22488 | 24 ft | 65 kts | 225° |
| 2026-05-06 17:20 | 43.65830 | 7.21836 | 22 ft | 124 kts | 225° |
| 2026-05-06 17:20 | 43.65104 | 7.20846 | 124 ft | 161 kts | 224° |
| 2026-05-06 17:20 | 43.64306 | 7.19751 | 702 ft | 167 kts | 225° |
| 2026-05-06 17:21 | 43.63471 | 7.18585 | 1353 ft | 175 kts | 224° |
| 2026-05-06 17:21 | 43.62563 | 7.17333 | 1710 ft | 195 kts | 225° |
| 2026-05-06 17:21 | 43.61563 | 7.15986 | 2193 ft | 206 kts | 222° |
| 2026-05-06 17:21 | 43.60218 | 7.15246 | 2787 ft | 220 kts | 184° |
| 2026-05-06 17:22 | 43.58709 | 7.15832 | 3508 ft | 231 kts | 160° |
| 2026-05-06 17:22 | 43.57277 | 7.16886 | 4265 ft | 235 kts | 154° |
| 2026-05-06 17:22 | 43.55801 | 7.17853 | 4981 ft | 234 kts | 170° |
| 2026-05-06 17:22 | 43.54219 | 7.18038 | 5720 ft | 226 kts | 193° |
| 2026-05-06 17:23 | 43.52689 | 7.17538 | 6424 ft | 226 kts | 204° |
| 2026-05-06 17:23 | 43.51433 | 7.16358 | 7158 ft | 219 kts | 233° |
| 2026-05-06 17:23 | 43.50845 | 7.14475 | 7786 ft | 219 kts | 265° |
| 2026-05-06 17:23 | 43.51048 | 7.12376 | 8569 ft | 221 kts | 283° |
| 2026-05-06 17:24 | 43.51457 | 7.10349 | 9240 ft | 225 kts | 283° |
| 2026-05-06 17:24 | 43.51876 | 7.08260 | 9964 ft | 226 kts | 282° |
| 2026-05-06 17:24 | 43.52359 | 7.06196 | 10621 ft | 230 kts | 293° |
| 2026-05-06 17:24 | 43.53307 | 7.04373 | 11193 ft | 243 kts | 312° |
| 2026-05-06 17:25 | 43.54786 | 7.03005 | 11420 ft | 271 kts | 328° |
| 2026-05-06 17:25 | 43.56535 | 7.01767 | 11628 ft | 294 kts | 328° |
| 2026-05-06 17:25 | 43.58408 | 7.00439 | 11805 ft | 317 kts | 328° |
| 2026-05-06 17:25 | 43.60443 | 6.98993 | 11958 ft | 340 kts | 329° |
| 2026-05-06 17:26 | 43.62601 | 6.97457 | 12366 ft | 353 kts | 329° |
| 2026-05-06 17:26 | 43.64804 | 6.95891 | 13000 ft | 359 kts | 329° |
| 2026-05-06 17:26 | 43.67035 | 6.94305 | 13663 ft | 363 kts | 329° |
| 2026-05-06 17:26 | 43.69289 | 6.92697 | 14224 ft | 366 kts | 329° |
| 2026-05-06 17:27 | 43.71562 | 6.91067 | 14842 ft | 369 kts | 329° |
| 2026-05-06 17:27 | 43.73846 | 6.89426 | 15453 ft | 371 kts | 329° |
| 2026-05-06 17:27 | 43.76150 | 6.87769 | 16062 ft | 374 kts | 328° |
| 2026-05-06 17:27 | 43.78477 | 6.86098 | 16658 ft | 377 kts | 328° |
| 2026-05-06 17:28 | 43.80814 | 6.84415 | 17263 ft | 380 kts | 328° |
| 2026-05-06 17:28 | 43.83137 | 6.82740 | 17919 ft | 382 kts | 328° |
| 2026-05-06 17:28 | 43.85503 | 6.81034 | 18488 ft | 384 kts | 328° |
| 2026-05-06 17:28 | 43.87882 | 6.79316 | 18961 ft | 387 kts | 328° |
| 2026-05-06 17:29 | 43.90284 | 6.77575 | 19424 ft | 392 kts | 327° |
| 2026-05-06 17:29 | 43.92711 | 6.75811 | 19910 ft | 395 kts | 327° |
| 2026-05-06 17:29 | 43.95155 | 6.74023 | 20389 ft | 399 kts | 326° |
| 2026-05-06 17:29 | 43.97581 | 6.72156 | 20843 ft | 401 kts | 324° |
| 2026-05-06 17:30 | 44.00024 | 6.70190 | 21322 ft | 405 kts | 323° |
| 2026-05-06 17:30 | 44.02460 | 6.68188 | 21794 ft | 409 kts | 322° |
| 2026-05-06 17:30 | 44.04922 | 6.66163 | 22301 ft | 412 kts | 322° |
| 2026-05-06 17:30 | 44.07405 | 6.64133 | 22757 ft | 415 kts | 322° |
| 2026-05-06 17:31 | 44.09910 | 6.62099 | 23204 ft | 418 kts | 323° |
| 2026-05-06 17:31 | 44.12432 | 6.60065 | 23613 ft | 421 kts | 322° |
| 2026-05-06 17:31 | 44.14985 | 6.58014 | 23946 ft | 425 kts | 322° |
| 2026-05-06 17:31 | 44.17553 | 6.55951 | 24273 ft | 427 kts | 322° |
| 2026-05-06 17:32 | 44.20107 | 6.53897 | 24621 ft | 430 kts | 322° |
| 2026-05-06 17:32 | 44.22738 | 6.51769 | 24973 ft | 433 kts | 322° |
| 2026-05-06 17:32 | 44.25346 | 6.49656 | 25360 ft | 434 kts | 322° |
| 2026-05-06 17:32 | 44.27931 | 6.47560 | 25716 ft | 436 kts | 322° |
| 2026-05-06 17:33 | 44.30557 | 6.45429 | 26122 ft | 437 kts | 323° |
| 2026-05-06 17:33 | 44.33185 | 6.43293 | 26493 ft | 439 kts | 323° |
| 2026-05-06 17:33 | 44.35830 | 6.41140 | 26817 ft | 441 kts | 322° |
| 2026-05-06 17:33 | 44.38486 | 6.38979 | 27162 ft | 444 kts | 322° |
| 2026-05-06 17:34 | 44.41161 | 6.36800 | 27483 ft | 446 kts | 322° |
| 2026-05-06 17:34 | 44.43847 | 6.34609 | 27764 ft | 449 kts | 322° |
| 2026-05-06 17:34 | 44.46496 | 6.32443 | 28039 ft | 450 kts | 322° |
| 2026-05-06 17:34 | 44.49210 | 6.30226 | 28266 ft | 453 kts | 322° |
| 2026-05-06 17:35 | 44.51935 | 6.28000 | 28517 ft | 456 kts | 322° |
| 2026-05-06 17:35 | 44.54681 | 6.25755 | 28754 ft | 458 kts | 322° |
| 2026-05-06 17:35 | 44.57440 | 6.23493 | 28997 ft | 460 kts | 322° |
| 2026-05-06 17:36 | 44.62993 | 6.18928 | 29447 ft | 464 kts | 322° |
| 2026-05-06 17:36 | 44.65783 | 6.16632 | 29695 ft | 465 kts | 321° |
| 2026-05-06 17:36 | 44.68576 | 6.14332 | 30018 ft | 465 kts | 321° |
| 2026-05-06 17:36 | 44.71367 | 6.12028 | 30302 ft | 465 kts | 321° |
| 2026-05-06 17:37 | 44.74154 | 6.09729 | 30612 ft | 464 kts | 321° |
| 2026-05-06 17:37 | 44.76940 | 6.07428 | 30921 ft | 463 kts | 322° |
| 2026-05-06 17:37 | 44.79703 | 6.05144 | 31241 ft | 461 kts | 322° |
| 2026-05-06 17:37 | 44.82475 | 6.02852 | 31574 ft | 460 kts | 322° |
| 2026-05-06 17:38 | 44.85235 | 6.00564 | 31904 ft | 460 kts | 323° |
| 2026-05-06 17:38 | 44.87987 | 5.98280 | 32126 ft | 459 kts | 322° |
| 2026-05-06 17:38 | 44.90713 | 5.96011 | 32372 ft | 460 kts | 323° |
| 2026-05-06 17:38 | 44.93490 | 5.93693 | 32604 ft | 459 kts | 323° |
| 2026-05-06 17:39 | 44.96238 | 5.91396 | 32859 ft | 459 kts | 323° |
| 2026-05-06 17:39 | 44.98991 | 5.89097 | 33128 ft | 459 kts | 323° |
| 2026-05-06 17:39 | 45.01740 | 5.86802 | 33390 ft | 458 kts | 323° |
| 2026-05-06 17:39 | 45.04460 | 5.84532 | 33618 ft | 459 kts | 323° |
| 2026-05-06 17:40 | 45.07208 | 5.82234 | 33856 ft | 459 kts | 323° |
| 2026-05-06 17:40 | 45.09939 | 5.79893 | 33918 ft | 458 kts | 322° |
| 2026-05-06 17:40 | 45.15297 | 5.75008 | 33929 ft | 456 kts | 321° |
| 2026-05-06 17:41 | 45.20557 | 5.70089 | 33920 ft | 455 kts | 321° |
| 2026-05-06 17:41 | 45.25861 | 5.65169 | 33931 ft | 456 kts | 322° |
| 2026-05-06 17:42 | 45.31193 | 5.60265 | 33919 ft | 456 kts | 322° |
| 2026-05-06 17:42 | 45.36527 | 5.55369 | 33921 ft | 456 kts | 322° |
| 2026-05-06 17:43 | 45.41855 | 5.50454 | 33920 ft | 456 kts | 322° |
| 2026-05-06 17:43 | 45.47180 | 5.45515 | 33932 ft | 456 kts | 323° |
| 2026-05-06 17:44 | 45.52785 | 5.41504 | 33940 ft | 460 kts | 333° |
| 2026-05-06 17:44 | 45.58666 | 5.37872 | 33935 ft | 459 kts | 333° |
| 2026-05-06 17:45 | 45.64458 | 5.34288 | 33927 ft | 458 kts | 333° |
| 2026-05-06 17:45 | 45.70271 | 5.30684 | 33937 ft | 458 kts | 333° |
| 2026-05-06 17:46 | 45.76116 | 5.27041 | 33930 ft | 458 kts | 333° |
| 2026-05-06 17:46 | 45.81953 | 5.23389 | 33923 ft | 458 kts | 333° |
| 2026-05-06 17:47 | 45.87791 | 5.19739 | 33933 ft | 458 kts | 333° |
| 2026-05-06 17:47 | 45.93641 | 5.16085 | 33920 ft | 459 kts | 333° |
| 2026-05-06 17:48 | 45.99491 | 5.12408 | 33922 ft | 459 kts | 333° |
| 2026-05-06 17:48 | 46.05336 | 5.08708 | 33917 ft | 459 kts | 333° |
| 2026-05-06 17:49 | 46.11143 | 5.05022 | 33916 ft | 459 kts | 333° |
| 2026-05-06 17:49 | 46.16982 | 5.01305 | 33914 ft | 459 kts | 333° |
| 2026-05-06 17:50 | 46.22820 | 4.97576 | 33909 ft | 458 kts | 333° |
| 2026-05-06 17:50 | 46.28656 | 4.93846 | 33927 ft | 458 kts | 333° |
| 2026-05-06 17:51 | 46.34486 | 4.90109 | 33917 ft | 458 kts | 333° |
| 2026-05-06 17:51 | 46.40316 | 4.86365 | 33916 ft | 458 kts | 333° |
| 2026-05-06 17:52 | 46.46140 | 4.82613 | 33914 ft | 458 kts | 334° |
| 2026-05-06 17:52 | 46.51959 | 4.78856 | 33927 ft | 457 kts | 334° |
| 2026-05-06 17:53 | 46.57723 | 4.75121 | 33934 ft | 456 kts | 334° |
| 2026-05-06 17:53 | 46.63510 | 4.71353 | 33924 ft | 455 kts | 334° |
| 2026-05-06 17:54 | 46.69297 | 4.67593 | 33928 ft | 455 kts | 334° |
| 2026-05-06 17:54 | 46.75083 | 4.63831 | 33924 ft | 455 kts | 334° |
| 2026-05-06 17:55 | 46.79930 | 4.60664 | 33919 ft | 455 kts | 334° |
| 2026-05-06 17:55 | 46.85713 | 4.56885 | 33928 ft | 455 kts | 334° |
| 2026-05-06 17:56 | 46.91467 | 4.53147 | 33928 ft | 455 kts | 334° |
| 2026-05-06 17:56 | 46.97254 | 4.49386 | 33933 ft | 455 kts | 335° |
| 2026-05-06 17:57 | 47.03037 | 4.45615 | 33937 ft | 454 kts | 335° |
| 2026-05-06 17:57 | 47.08795 | 4.41836 | 33933 ft | 453 kts | 335° |
| 2026-05-06 17:58 | 47.14548 | 4.38052 | 33940 ft | 453 kts | 334° |
| 2026-05-06 17:58 | 47.20309 | 4.34266 | 33941 ft | 453 kts | 334° |
| 2026-05-06 17:59 | 47.26024 | 4.30502 | 33931 ft | 453 kts | 334° |
| 2026-05-06 17:59 | 47.31773 | 4.26699 | 33923 ft | 453 kts | 335° |
| 2026-05-06 18:00 | 47.37521 | 4.22882 | 33919 ft | 453 kts | 334° |
| 2026-05-06 18:00 | 47.43290 | 4.19050 | 33918 ft | 454 kts | 335° |
| 2026-05-06 18:01 | 47.49049 | 4.15212 | 33926 ft | 454 kts | 335° |
| 2026-05-06 18:01 | 47.54765 | 4.11396 | 33945 ft | 453 kts | 335° |
| 2026-05-06 18:02 | 47.60513 | 4.07555 | 33946 ft | 452 kts | 335° |
| 2026-05-06 18:02 | 47.66243 | 4.03728 | 33942 ft | 452 kts | 335° |
| 2026-05-06 18:03 | 47.71971 | 3.99889 | 33936 ft | 451 kts | 335° |
| 2026-05-06 18:03 | 47.77708 | 3.96034 | 33925 ft | 451 kts | 335° |
| 2026-05-06 18:04 | 47.83400 | 3.92205 | 33929 ft | 451 kts | 335° |
| 2026-05-06 18:04 | 47.89117 | 3.88345 | 33925 ft | 451 kts | 334° |
| 2026-05-06 18:05 | 47.94836 | 3.84466 | 33925 ft | 451 kts | 334° |
| 2026-05-06 18:05 | 48.00548 | 3.80585 | 33939 ft | 451 kts | 335° |
| 2026-05-06 18:06 | 48.06257 | 3.76700 | 33932 ft | 451 kts | 334° |
| 2026-05-06 18:06 | 48.11960 | 3.72808 | 33928 ft | 450 kts | 334° |
| 2026-05-06 18:07 | 48.17169 | 3.67703 | 33918 ft | 448 kts | 317° |
| 2026-05-06 18:07 | 48.21466 | 3.60921 | 33917 ft | 448 kts | 312° |
| 2026-05-06 18:08 | 48.25662 | 3.54092 | 33931 ft | 448 kts | 312° |
| 2026-05-06 18:08 | 48.29884 | 3.47209 | 33933 ft | 448 kts | 312° |
| 2026-05-06 18:09 | 48.34101 | 3.40311 | 33921 ft | 448 kts | 312° |
| 2026-05-06 18:09 | 48.38330 | 3.33415 | 33920 ft | 449 kts | 315° |
| 2026-05-06 18:10 | 48.43354 | 3.27874 | 33913 ft | 449 kts | 333° |
| 2026-05-06 18:10 | 48.49112 | 3.24137 | 33909 ft | 450 kts | 336° |
| 2026-05-06 18:11 | 48.54888 | 3.20451 | 33915 ft | 451 kts | 336° |
| 2026-05-06 18:11 | 48.60628 | 3.16756 | 33916 ft | 451 kts | 336° |
| 2026-05-06 18:12 | 48.66409 | 3.13045 | 33927 ft | 451 kts | 336° |
| 2026-05-06 18:12 | 48.72228 | 3.09306 | 33932 ft | 451 kts | 336° |
| 2026-05-06 18:13 | 48.77965 | 3.05598 | 33932 ft | 451 kts | 336° |
| 2026-05-06 18:13 | 48.83731 | 3.01860 | 33949 ft | 449 kts | 334° |
| 2026-05-06 18:14 | 48.89190 | 2.97278 | 33946 ft | 448 kts | 329° |
| 2026-05-06 18:14 | 48.94593 | 2.92549 | 33948 ft | 447 kts | 329° |
| 2026-05-06 18:15 | 48.99986 | 2.87831 | 33949 ft | 447 kts | 329° |
| 2026-05-06 18:15 | 49.05372 | 2.83099 | 33937 ft | 447 kts | 329° |
| 2026-05-06 18:16 | 49.10752 | 2.78353 | 33942 ft | 447 kts | 329° |
| 2026-05-06 18:16 | 49.16139 | 2.73592 | 33944 ft | 447 kts | 329° |
| 2026-05-06 18:17 | 49.21531 | 2.68824 | 33938 ft | 447 kts | 329° |
| 2026-05-06 18:17 | 49.26913 | 2.64053 | 33936 ft | 447 kts | 329° |
| 2026-05-06 18:18 | 49.32244 | 2.59313 | 33949 ft | 445 kts | 329° |
| 2026-05-06 18:18 | 49.37597 | 2.54538 | 33949 ft | 445 kts | 329° |
| 2026-05-06 18:19 | 49.42942 | 2.49753 | 33958 ft | 444 kts | 329° |
| 2026-05-06 18:19 | 49.48275 | 2.44973 | 33954 ft | 444 kts | 329° |
| 2026-05-06 18:20 | 49.53341 | 2.39617 | 33954 ft | 442 kts | 319° |
| 2026-05-06 18:20 | 49.57997 | 2.33436 | 33968 ft | 441 kts | 319° |
| 2026-05-06 18:21 | 49.62645 | 2.27276 | 33960 ft | 440 kts | 319° |
| 2026-05-06 18:21 | 49.67279 | 2.21113 | 33954 ft | 440 kts | 319° |
| 2026-05-06 18:22 | 49.71871 | 2.14969 | 33959 ft | 439 kts | 319° |
| 2026-05-06 18:22 | 49.76485 | 2.08784 | 33961 ft | 438 kts | 319° |
| 2026-05-06 18:23 | 49.81086 | 2.02607 | 33964 ft | 437 kts | 319° |
| 2026-05-06 18:23 | 49.85677 | 1.96425 | 33961 ft | 437 kts | 319° |
| 2026-05-06 18:24 | 49.90263 | 1.90238 | 33953 ft | 437 kts | 319° |
| 2026-05-06 18:24 | 49.94859 | 1.84026 | 33953 ft | 437 kts | 319° |
| 2026-05-06 18:25 | 49.99443 | 1.77810 | 33952 ft | 437 kts | 319° |
| 2026-05-06 18:25 | 50.04012 | 1.71590 | 33956 ft | 437 kts | 319° |
| 2026-05-06 18:26 | 50.08584 | 1.65361 | 33951 ft | 437 kts | 319° |
| 2026-05-06 18:26 | 50.13169 | 1.59147 | 33961 ft | 437 kts | 319° |
| 2026-05-06 18:27 | 50.17756 | 1.52929 | 33955 ft | 437 kts | 319° |
| 2026-05-06 18:27 | 50.22305 | 1.46741 | 33964 ft | 436 kts | 319° |
| 2026-05-06 18:28 | 50.26609 | 1.40851 | 33973 ft | 436 kts | 319° |
| 2026-05-06 18:28 | 50.31202 | 1.34563 | 33962 ft | 436 kts | 319° |
| 2026-05-06 18:29 | 50.35765 | 1.28311 | 33962 ft | 436 kts | 319° |
| 2026-05-06 18:29 | 50.40196 | 1.22210 | 33970 ft | 436 kts | 319° |
| 2026-05-06 18:30 | 50.44660 | 1.16037 | 33967 ft | 436 kts | 318° |
| 2026-05-06 18:30 | 50.49206 | 1.09730 | 33974 ft | 436 kts | 318° |
| 2026-05-06 18:31 | 50.53789 | 1.03492 | 33974 ft | 436 kts | 320° |
| 2026-05-06 18:31 | 50.58568 | 0.97613 | 33972 ft | 436 kts | 322° |
| 2026-05-06 18:32 | 50.63395 | 0.91816 | 33972 ft | 436 kts | 321° |
| 2026-05-06 18:32 | 50.68182 | 0.85920 | 33990 ft | 436 kts | 320° |
| 2026-05-06 18:33 | 50.72932 | 0.79965 | 33990 ft | 436 kts | 320° |
| 2026-05-06 18:33 | 50.77651 | 0.74036 | 33991 ft | 436 kts | 320° |
| 2026-05-06 18:34 | 50.82428 | 0.68042 | 33984 ft | 436 kts | 320° |
| 2026-05-06 18:34 | 50.87144 | 0.62124 | 33988 ft | 436 kts | 320° |
| 2026-05-06 18:35 | 50.91881 | 0.56136 | 33989 ft | 436 kts | 320° |
| 2026-05-06 18:35 | 50.96625 | 0.50133 | 33982 ft | 436 kts | 320° |
| 2026-05-06 18:36 | 51.01367 | 0.44134 | 33979 ft | 436 kts | 320° |
| 2026-05-06 18:36 | 51.06099 | 0.38110 | 33974 ft | 435 kts | 320° |
| 2026-05-06 18:37 | 51.10027 | 0.33103 | 33966 ft | 435 kts | 320° |
| 2026-05-06 18:37 | 51.15550 | 0.26049 | 33975 ft | 435 kts | 320° |
| 2026-05-06 18:38 | 51.20273 | 0.20001 | 33973 ft | 435 kts | 320° |
| 2026-05-06 18:38 | 51.24992 | 0.13935 | 33980 ft | 435 kts | 320° |
| 2026-05-06 18:39 | 51.29631 | 0.07822 | 33974 ft | 434 kts | 314° |
| 2026-05-06 18:40 | 51.34047 | -0.02830 | 34001 ft | 430 kts | 289° |
| 2026-05-06 18:40 | 51.35686 | -0.11959 | 34002 ft | 428 kts | 284° |
| 2026-05-06 18:41 | 51.37237 | -0.21168 | 33920 ft | 433 kts | 284° |
| 2026-05-06 18:41 | 51.38031 | -0.25884 | 33532 ft | 443 kts | 284° |
| 2026-05-06 18:41 | 51.38832 | -0.30678 | 33119 ft | 447 kts | 284° |
| 2026-05-06 18:41 | 51.39633 | -0.35516 | 32745 ft | 450 kts | 284° |
| 2026-05-06 18:42 | 51.40432 | -0.40351 | 32480 ft | 451 kts | 284° |
| 2026-05-06 18:42 | 51.41234 | -0.45216 | 32203 ft | 450 kts | 284° |
| 2026-05-06 18:42 | 51.42024 | -0.50026 | 31466 ft | 443 kts | 284° |
| 2026-05-06 18:42 | 51.42801 | -0.54763 | 30425 ft | 433 kts | 284° |
| 2026-05-06 18:43 | 51.43562 | -0.59415 | 29446 ft | 422 kts | 284° |
| 2026-05-06 18:43 | 51.44294 | -0.63904 | 28970 ft | 412 kts | 284° |
| 2026-05-06 18:43 | 51.45012 | -0.68322 | 28353 ft | 408 kts | 284° |
| 2026-05-06 18:43 | 51.45724 | -0.72709 | 27755 ft | 404 kts | 284° |
| 2026-05-06 18:44 | 51.46427 | -0.77059 | 27164 ft | 401 kts | 284° |
| 2026-05-06 18:44 | 51.47122 | -0.81365 | 26581 ft | 398 kts | 284° |
| 2026-05-06 18:44 | 51.47806 | -0.85593 | 26015 ft | 395 kts | 284° |
| 2026-05-06 18:44 | 51.48490 | -0.89834 | 25443 ft | 392 kts | 284° |
| 2026-05-06 18:45 | 51.49167 | -0.94055 | 24874 ft | 390 kts | 284° |
| 2026-05-06 18:45 | 51.49839 | -0.98261 | 24318 ft | 388 kts | 284° |
| 2026-05-06 18:45 | 51.50506 | -1.02440 | 23763 ft | 386 kts | 284° |
| 2026-05-06 18:45 | 51.51169 | -1.06609 | 23162 ft | 384 kts | 284° |
| 2026-05-06 18:46 | 51.51824 | -1.10746 | 22643 ft | 380 kts | 284° |
| 2026-05-06 18:46 | 51.52471 | -1.14846 | 22162 ft | 377 kts | 284° |
| 2026-05-06 18:46 | 51.53091 | -1.18998 | 21827 ft | 387 kts | 282° |
| 2026-05-06 18:46 | 51.53639 | -1.23247 | 21171 ft | 388 kts | 281° |
| 2026-05-06 18:47 | 51.54126 | -1.27479 | 20704 ft | 384 kts | 280° |
| 2026-05-06 18:47 | 51.54587 | -1.31692 | 20227 ft | 381 kts | 280° |
| 2026-05-06 18:47 | 51.55047 | -1.35878 | 19753 ft | 379 kts | 280° |
| 2026-05-06 18:47 | 51.55513 | -1.40030 | 19284 ft | 376 kts | 280° |
| 2026-05-06 18:48 | 51.55985 | -1.44150 | 18831 ft | 374 kts | 281° |
| 2026-05-06 18:48 | 51.56461 | -1.48246 | 18426 ft | 370 kts | 281° |
| 2026-05-06 18:48 | 51.56922 | -1.52206 | 18292 ft | 348 kts | 281° |
| 2026-05-06 18:48 | 51.57354 | -1.55915 | 17976 ft | 329 kts | 281° |
| 2026-05-06 18:49 | 51.57767 | -1.59441 | 17321 ft | 321 kts | 281° |
| 2026-05-06 18:49 | 51.58174 | -1.62945 | 16685 ft | 318 kts | 281° |
| 2026-05-06 18:49 | 51.58566 | -1.66445 | 16249 ft | 317 kts | 279° |
| 2026-05-06 18:49 | 51.58873 | -1.69941 | 15848 ft | 315 kts | 278° |
| 2026-05-06 18:50 | 51.59125 | -1.73438 | 15453 ft | 313 kts | 277° |
| 2026-05-06 18:50 | 51.59353 | -1.76926 | 15064 ft | 314 kts | 277° |
| 2026-05-06 18:50 | 51.59578 | -1.80414 | 14665 ft | 313 kts | 277° |
| 2026-05-06 18:50 | 51.59793 | -1.83921 | 14265 ft | 313 kts | 274° |
| 2026-05-06 18:51 | 51.59707 | -1.87397 | 13863 ft | 313 kts | 263° |
| 2026-05-06 18:51 | 51.59213 | -1.90812 | 13457 ft | 314 kts | 252° |
| 2026-05-06 18:51 | 51.58316 | -1.93996 | 13246 ft | 312 kts | 241° |
| 2026-05-06 18:51 | 51.57153 | -1.96945 | 13151 ft | 312 kts | 239° |
| 2026-05-06 18:52 | 51.55980 | -1.99884 | 13014 ft | 312 kts | 239° |
| 2026-05-06 18:52 | 51.54813 | -2.02822 | 12881 ft | 312 kts | 239° |
| 2026-05-06 18:52 | 51.53649 | -2.05750 | 12739 ft | 311 kts | 239° |
| 2026-05-06 18:52 | 51.52579 | -2.08759 | 12583 ft | 309 kts | 248° |
| 2026-05-06 18:53 | 51.51812 | -2.11999 | 12114 ft | 311 kts | 251° |
| 2026-05-06 18:53 | 51.51077 | -2.15254 | 11684 ft | 310 kts | 251° |
| 2026-05-06 18:53 | 51.50343 | -2.18509 | 11271 ft | 309 kts | 251° |
| 2026-05-06 18:53 | 51.49618 | -2.21720 | 10896 ft | 306 kts | 251° |
| 2026-05-06 18:54 | 51.48892 | -2.24932 | 10564 ft | 302 kts | 251° |
| 2026-05-06 18:54 | 51.48170 | -2.28110 | 10073 ft | 305 kts | 251° |
| 2026-05-06 18:54 | 51.47456 | -2.31260 | 9821 ft | 298 kts | 251° |
| 2026-05-06 18:54 | 51.46751 | -2.34363 | 9447 ft | 294 kts | 251° |
| 2026-05-06 18:55 | 51.46052 | -2.37433 | 9059 ft | 292 kts | 251° |
| 2026-05-06 18:55 | 51.45358 | -2.40472 | 8672 ft | 289 kts | 251° |
| 2026-05-06 18:55 | 51.44665 | -2.43497 | 8241 ft | 288 kts | 251° |
| 2026-05-06 18:55 | 51.43976 | -2.46498 | 7847 ft | 286 kts | 251° |
| 2026-05-06 18:56 | 51.43292 | -2.49479 | 7441 ft | 284 kts | 251° |
| 2026-05-06 18:56 | 51.42610 | -2.52435 | 7054 ft | 282 kts | 251° |
| 2026-05-06 18:56 | 51.41923 | -2.55412 | 6733 ft | 280 kts | 251° |
| 2026-05-06 18:56 | 51.41247 | -2.58330 | 6580 ft | 279 kts | 251° |
| 2026-05-06 18:57 | 51.40571 | -2.61242 | 6451 ft | 279 kts | 251° |
| 2026-05-06 18:57 | 51.39895 | -2.64148 | 6322 ft | 278 kts | 250° |
| 2026-05-06 18:57 | 51.39220 | -2.67051 | 6195 ft | 278 kts | 250° |
| 2026-05-06 18:57 | 51.38551 | -2.69955 | 6077 ft | 278 kts | 253° |
| 2026-05-06 18:58 | 51.38346 | -2.72946 | 5910 ft | 275 kts | 278° |
| 2026-05-06 18:58 | 51.38772 | -2.75897 | 5566 ft | 268 kts | 285° |
| 2026-05-06 18:58 | 51.39234 | -2.78745 | 5291 ft | 261 kts | 285° |
| 2026-05-06 18:58 | 51.39686 | -2.81525 | 5020 ft | 254 kts | 285° |
| 2026-05-06 18:59 | 51.40123 | -2.84233 | 4749 ft | 248 kts | 286° |
| 2026-05-06 18:59 | 51.40548 | -2.86880 | 4478 ft | 242 kts | 285° |
| 2026-05-06 18:59 | 51.40961 | -2.89468 | 4219 ft | 238 kts | 284° |
| 2026-05-06 18:59 | 51.41364 | -2.92019 | 3956 ft | 234 kts | 284° |
| 2026-05-06 19:00 | 51.41714 | -2.94527 | 3734 ft | 228 kts | 274° |
| 2026-05-06 19:00 | 51.41339 | -2.96881 | 3606 ft | 217 kts | 233° |
| 2026-05-06 19:00 | 51.40174 | -2.98231 | 3480 ft | 203 kts | 193° |
| 2026-05-06 19:00 | 51.38832 | -2.98160 | 3498 ft | 193 kts | 159° |
| 2026-05-06 19:01 | 51.37775 | -2.96924 | 3454 ft | 187 kts | 124° |
| 2026-05-06 19:01 | 51.37348 | -2.95009 | 3311 ft | 184 kts | 91° |
| 2026-05-06 19:01 | 51.37412 | -2.92983 | 3099 ft | 180 kts | 85° |
| 2026-05-06 19:01 | 51.37499 | -2.91015 | 2867 ft | 175 kts | 86° |
| 2026-05-06 19:02 | 51.37580 | -2.89102 | 2631 ft | 169 kts | 86° |
| 2026-05-06 19:02 | 51.37656 | -2.87253 | 2411 ft | 164 kts | 86° |
| 2026-05-06 19:02 | 51.37728 | -2.85466 | 2213 ft | 156 kts | 85° |
| 2026-05-06 19:02 | 51.37795 | -2.83803 | 1987 ft | 144 kts | 85° |
| 2026-05-06 19:03 | 51.37858 | -2.82234 | 1792 ft | 139 kts | 85° |
| 2026-05-06 19:03 | 51.37919 | -2.80705 | 1587 ft | 137 kts | 85° |
| 2026-05-06 19:03 | 51.37980 | -2.79180 | 1391 ft | 137 kts | 85° |
| 2026-05-06 19:03 | 51.38044 | -2.77656 | 1211 ft | 137 kts | 85° |
| 2026-05-06 19:04 | 51.38112 | -2.76136 | 1003 ft | 137 kts | 86° |
| 2026-05-06 19:04 | 51.38166 | -2.74622 | 813 ft | 135 kts | 86° |
| 2026-05-06 19:04 | 51.38222 | -2.73123 | 646 ft | 133 kts | 87° |
| 2026-05-06 19:04 | 51.38269 | -2.71876 | 623 ft | 80 kts | 86° |
| 2026-05-06 19:05 | 51.38290 | -2.71341 | 604 ft | 37 kts | 86° |
| 2026-05-06 19:05 | 51.38305 | -2.70956 | 613 ft | 21 kts | 86° |
| 2026-05-06 19:05 | 51.38313 | -2.70806 | 613 ft | 12 kts | 76° |
| 2026-05-06 19:05 | 51.38376 | -2.70743 | 617 ft | 9 kts | 18° |
| 2026-05-06 19:06 | 51.38426 | -2.70715 | 611 ft | 7 kts | 20° |
| 2026-05-06 19:06 | 51.38460 | -2.70722 | 611 ft | 4 kts | 322° |
| 2026-05-06 19:06 | 51.38470 | -2.70825 | 613 ft | 15 kts | 266° |
| 2026-05-06 19:06 | 51.38464 | -2.70972 | 614 ft | 4 kts | 266° |
| 2026-05-06 19:07 | 51.38464 | -2.70999 | 615 ft | 1 kts | 276° |
| 2026-05-06 19:07 | 51.38465 | -2.71001 | 615 ft | 1 kts | 288° |
| 2026-05-06 19:07 | 51.38510 | -2.71014 | 616 ft | 3 kts | 358° |
| 2026-05-06 19:07 | 51.38517 | -2.71015 | 620 ft | 2 kts | 356° |
| 2026-05-06 19:08 | 51.38523 | -2.71015 | 617 ft | 2 kts | 357° |
| 2026-05-06 19:08 | 51.38525 | -2.71015 | 616 ft | 0 kts | 357° |